Aérodrome :
LOGIN :

S'inscrire | Disclaimer

   EN    FR    IT 

 










Légende :    VFR   VFR Marginal   IFR   IFR Intensif   IFR Très Intensif
Visi : 
Plafond : 
>= 8 km
>= 3000ft
5 à 8 km
1000 à 3000 ft
1500m à 5 km
500 à 1000 ft
800 à 1500m
200 à 500 ft
< 800m
< 200 ft
Symboles :   Orages  Brouillard  Fortes neiges  Fortes précipitations  Vent > 20 kt
SIGMETs :   Divers  Orages  Givrage  Turbulence  Onde Orograph.  Cendres Volcan.







- Altitude de l'aérodrome : 239 ft
- Code IATA : VRN


LIPX - Villafranca Int. Verona

DERNIER METAR :
  • 180720Z 21003KT 2500 BR FEW020 BKN040 22/21 Q1015

METARs EXPIRÉS :
  • 180650Z 21003KT 170V230 2000 BR FEW020 BKN040 21/20 Q1015
  • 180620Z 25002KT 2000 BR FEW050 21/20 Q1015
  • 180550Z 24002KT 2500 BR SCT030 20/19 Q1014
  • 180520Z 23002KT 2500 BR BKN040 20/19 Q1014
  • 180450Z 22003KT 3000 BR BKN050 20/19 Q1014

TAF TAF LIPX
Valide du 18 à 06h jusqu'au 18 à 15h UTC


180500Z 1806/1815 VRB05KT 8000 BKN040
TEMPO 1806/1808 4000 BR
TEMPO 1807/1815 4000 TSRA
Pas de NOTAMs connus pour ce terrain.



MET'MAP, la Météo Aéronautique d'un coup d'oeil ! - Copyright ORBIFLY Décembre 2007 - Disclaimer

ORBIFLY MET'MAP TEAM :

Programmation & Développement : Alexandra Zaïnal
Conception & Développement : Baudouin d'Aumeries
Co-Programmation & Développement : Marc-Olivier Méhu
Soutien technique & logistique : Manuel Goepfert

Contact : metmap@orbifly.com




SOURCES & CREDITS :

   NOAA